sensor_id;sensor_type;location;lat;lon;timestamp;pressure;altitude;pressure_sealevel;temperature;humidity
16461;BME280;8341;42.048;24.650;2022-12-07T05:09:33;97277.81;;;4.73;100.00
16461;BME280;8341;42.048;24.650;2022-12-07T05:12:00;97274.91;;;4.80;100.00
16461;BME280;8341;42.048;24.650;2022-12-07T05:14:27;97276.41;;;4.81;100.00
16461;BME280;8341;42.048;24.650;2022-12-07T05:16:54;97272.94;;;4.68;100.00
16461;BME280;8341;42.048;24.650;2022-12-07T05:19:21;97276.84;;;4.67;100.00
16461;BME280;8341;42.048;24.650;2022-12-07T05:21:47;97273.59;;;4.72;100.00
16461;BME280;8341;42.048;24.650;2022-12-07T05:24:16;97278.88;;;4.75;100.00
16461;BME280;8341;42.048;24.650;2022-12-07T05:26:45;97287.53;;;4.83;100.00
16461;BME280;8341;42.048;24.650;2022-12-07T05:29:13;97284.81;;;4.83;100.00
16461;BME280;8341;42.048;24.650;2022-12-07T05:31:40;97294.56;;;4.80;100.00
16461;BME280;8341;42.048;24.650;2022-12-07T05:34:07;97295.53;;;4.74;100.00
16461;BME280;8341;42.048;24.650;2022-12-07T05:36:34;97290.13;;;4.74;100.00
16461;BME280;8341;42.048;24.650;2022-12-07T05:39:01;97284.50;;;4.81;100.00
16461;BME280;8341;42.048;24.650;2022-12-07T05:41:28;97291.44;;;4.94;100.00
16461;BME280;8341;42.048;24.650;2022-12-07T05:44:13;97290.66;;;5.06;100.00
16461;BME280;8341;42.048;24.650;2022-12-07T05:46:40;97279.75;;;5.10;100.00
16461;BME280;8341;42.048;24.650;2022-12-07T05:49:07;97278.03;;;5.16;100.00
16461;BME280;8341;42.048;24.650;2022-12-07T05:51:34;97277.13;;;5.19;100.00
16461;BME280;8341;42.048;24.650;2022-12-07T05:54:01;97279.72;;;5.23;100.00
16461;BME280;8341;42.048;24.650;2022-12-07T05:56:27;97279.69;;;5.35;100.00
16461;BME280;8341;42.048;24.650;2022-12-07T05:58:54;97283.69;;;5.43;100.00
16461;BME280;8341;42.048;24.650;2022-12-07T06:01:40;97286.91;;;5.51;100.00
16461;BME280;8341;42.048;24.650;2022-12-07T06:04:07;97290.38;;;5.51;100.00
16461;BME280;8341;42.048;24.650;2022-12-07T06:06:34;97297.53;;;5.45;100.00
16461;BME280;8341;42.048;24.650;2022-12-07T06:09:01;97298.19;;;5.49;100.00
16461;BME280;8341;42.048;24.650;2022-12-07T06:11:28;97296.72;;;5.57;100.00
16461;BME280;8341;42.048;24.650;2022-12-07T06:14:12;97301.41;;;5.57;100.00
16461;BME280;8341;42.048;24.650;2022-12-07T06:16:41;97298.16;;;5.62;100.00
16461;BME280;8341;42.048;24.650;2022-12-07T06:19:08;97310.22;;;5.70;100.00
16461;BME280;8341;42.048;24.650;2022-12-07T06:21:35;97309.69;;;5.75;100.00
16461;BME280;8341;42.048;24.650;2022-12-07T06:24:02;97307.72;;;5.76;100.00
16461;BME280;8341;42.048;24.650;2022-12-07T06:26:28;97302.09;;;5.83;100.00
16461;BME280;8341;42.048;24.650;2022-12-07T06:28:55;97301.22;;;5.86;100.00
16461;BME280;8341;42.048;24.650;2022-12-07T06:31:22;97302.94;;;5.92;100.00
16461;BME280;8341;42.048;24.650;2022-12-07T06:33:50;97304.97;;;6.01;100.00
16461;BME280;8341;42.048;24.650;2022-12-07T06:36:17;97302.13;;;6.04;100.00
16461;BME280;8341;42.048;24.650;2022-12-07T06:38:44;97306.78;;;6.04;100.00
16461;BME280;8341;42.048;24.650;2022-12-07T06:41:11;97306.47;;;6.02;100.00
16461;BME280;8341;42.048;24.650;2022-12-07T06:43:38;97300.19;;;6.05;100.00
16461;BME280;8341;42.048;24.650;2022-12-07T06:46:05;97304.16;;;6.13;100.00
16461;BME280;8341;42.048;24.650;2022-12-07T06:48:32;97299.09;;;6.24;100.00
16461;BME280;8341;42.048;24.650;2022-12-07T06:51:00;97305.53;;;6.39;100.00
16461;BME280;8341;42.048;24.650;2022-12-07T06:53:27;97303.63;;;6.49;100.00
16461;BME280;8341;42.048;24.650;2022-12-07T06:55:54;97304.44;;;6.58;100.00
16461;BME280;8341;42.048;24.650;2022-12-07T06:58:21;97297.94;;;6.56;100.00
16461;BME280;8341;42.048;24.650;2022-12-07T07:00:48;97300.84;;;6.61;100.00
16461;BME280;8341;42.048;24.650;2022-12-07T07:03:16;97294.13;;;6.75;100.00
16461;BME280;8341;42.048;24.650;2022-12-07T07:05:43;97297.34;;;6.91;100.00
16461;BME280;8341;42.048;24.650;2022-12-07T07:08:12;97292.13;;;7.06;100.00
16461;BME280;8341;42.048;24.650;2022-12-07T07:10:39;97293.22;;;7.18;100.00
16461;BME280;8341;42.048;24.650;2022-12-07T07:13:06;97289.47;;;7.24;100.00
16461;BME280;8341;42.048;24.650;2022-12-07T07:15:34;97306.84;;;7.36;100.00
16461;BME280;8341;42.048;24.650;2022-12-07T07:18:01;97305.19;;;7.38;100.00
16461;BME280;8341;42.048;24.650;2022-12-07T07:20:28;97310.31;;;7.45;100.00
16461;BME280;8341;42.048;24.650;2022-12-07T07:22:56;97279.44;;;7.43;100.00
16461;BME280;8341;42.048;24.650;2022-12-07T07:25:24;97310.06;;;7.71;100.00
16461;BME280;8341;42.048;24.650;2022-12-07T07:27:51;97313.84;;;7.82;100.00
16461;BME280;8341;42.048;24.650;2022-12-07T07:30:18;97304.81;;;7.94;100.00
16461;BME280;8341;42.048;24.650;2022-12-07T07:32:45;97306.03;;;8.02;100.00
16461;BME280;8341;42.048;24.650;2022-12-07T07:35:12;97295.91;;;8.03;99.75
16461;BME280;8341;42.048;24.650;2022-12-07T07:37:39;97312.03;;;8.25;98.29
16461;BME280;8341;42.048;24.650;2022-12-07T07:40:07;97311.00;;;8.31;97.36
16461;BME280;8341;42.048;24.650;2022-12-07T07:42:36;97302.69;;;8.26;97.46
16461;BME280;8341;42.048;24.650;2022-12-07T07:45:03;97314.75;;;8.43;96.76
16461;BME280;8341;42.048;24.650;2022-12-07T07:47:30;97316.44;;;8.49;95.98
16461;BME280;8341;42.048;24.650;2022-12-07T07:49:58;97318.34;;;8.58;93.96
16461;BME280;8341;42.048;24.650;2022-12-07T07:52:25;97308.09;;;8.53;91.66
16461;BME280;8341;42.048;24.650;2022-12-07T07:54:52;97310.53;;;8.60;90.24
16461;BME280;8341;42.048;24.650;2022-12-07T07:57:19;97318.78;;;8.74;89.14
16461;BME280;8341;42.048;24.650;2022-12-07T07:59:47;97324.19;;;8.83;87.96
16461;BME280;8341;42.048;24.650;2022-12-07T08:02:15;97296.84;;;8.87;88.10
16461;BME280;8341;42.048;24.650;2022-12-07T08:04:42;97318.94;;;9.13;89.71
16461;BME280;8341;42.048;24.650;2022-12-07T08:07:10;97319.34;;;9.29;89.73
16461;BME280;8341;42.048;24.650;2022-12-07T08:09:37;97318.94;;;9.45;89.12
16461;BME280;8341;42.048;24.650;2022-12-07T08:12:06;97318.88;;;9.55;89.15
16461;BME280;8341;42.048;24.650;2022-12-07T08:14:33;97319.97;;;9.72;87.73
16461;BME280;8341;42.048;24.650;2022-12-07T08:17:01;97319.94;;;9.81;86.65
16461;BME280;8341;42.048;24.650;2022-12-07T08:19:28;97327.94;;;9.99;85.41
16461;BME280;8341;42.048;24.650;2022-12-07T08:21:55;97324.56;;;10.13;84.80
16461;BME280;8341;42.048;24.650;2022-12-07T08:24:22;97322.63;;;10.04;81.54
16461;BME280;8341;42.048;24.650;2022-12-07T08:26:50;97322.97;;;10.21;82.10
16461;BME280;8341;42.048;24.650;2022-12-07T08:29:18;97314.13;;;9.64;81.29
16461;BME280;8341;42.048;24.650;2022-12-07T08:31:45;97308.63;;;9.17;86.84
16461;BME280;8341;42.048;24.650;2022-12-07T08:34:13;97296.75;;;9.05;87.79
16461;BME280;8341;42.048;24.650;2022-12-07T08:36:40;97319.78;;;8.86;91.39
16461;BME280;8341;42.048;24.650;2022-12-07T08:39:07;97313.72;;;8.91;92.18
16461;BME280;8341;42.048;24.650;2022-12-07T08:41:34;97315.47;;;8.70;93.42
16461;BME280;8341;42.048;24.650;2022-12-07T08:44:01;97319.34;;;8.78;93.33
16461;BME280;8341;42.048;24.650;2022-12-07T08:46:31;97307.44;;;8.76;93.26
16461;BME280;8341;42.048;24.650;2022-12-07T08:49:05;97304.91;;;8.63;95.87
16461;BME280;8341;42.048;24.650;2022-12-07T08:51:36;97300.84;;;8.59;98.96
16461;BME280;8341;42.048;24.650;2022-12-07T08:54:07;97309.31;;;8.52;100.00
16461;BME280;8341;42.048;24.650;2022-12-07T08:56:35;97292.53;;;8.62;100.00
16461;BME280;8341;42.048;24.650;2022-12-07T08:59:03;97295.38;;;8.68;100.00
16461;BME280;8341;42.048;24.650;2022-12-07T09:01:31;97288.38;;;8.85;100.00
16461;BME280;8341;42.048;24.650;2022-12-07T09:03:58;97288.38;;;8.85;100.00
16461;BME280;8341;42.048;24.650;2022-12-07T09:06:25;97276.81;;;8.66;100.00
16461;BME280;8341;42.048;24.650;2022-12-07T09:08:56;97266.22;;;8.68;100.00
16461;BME280;8341;42.048;24.650;2022-12-07T09:11:24;97256.19;;;8.42;100.00
16461;BME280;8341;42.048;24.650;2022-12-07T09:13:51;97258.72;;;8.54;100.00
16461;BME280;8341;42.048;24.650;2022-12-07T09:16:18;97262.50;;;8.57;100.00
16461;BME280;8341;42.048;24.650;2022-12-07T09:18:45;97261.28;;;8.58;100.00
16461;BME280;8341;42.048;24.650;2022-12-07T09:21:12;97264.41;;;8.65;100.00
16461;BME280;8341;42.048;24.650;2022-12-07T09:23:39;97257.66;;;8.61;100.00
16461;BME280;8341;42.048;24.650;2022-12-07T09:26:09;97262.75;;;8.68;100.00
16461;BME280;8341;42.048;24.650;2022-12-07T09:28:36;97250.47;;;8.81;100.00
16461;BME280;8341;42.048;24.650;2022-12-07T09:31:04;97247.25;;;8.92;100.00
16461;BME280;8341;42.048;24.650;2022-12-07T09:33:31;97242.88;;;8.95;98.72
16461;BME280;8341;42.048;24.650;2022-12-07T09:35:58;97238.44;;;9.06;98.58
16461;BME280;8341;42.048;24.650;2022-12-07T09:38:25;97239.44;;;8.85;99.28
16461;BME280;8341;42.048;24.650;2022-12-07T09:40:52;97232.13;;;9.00;99.72
16461;BME280;8341;42.048;24.650;2022-12-07T09:43:23;97227.66;;;8.88;98.56
16461;BME280;8341;42.048;24.650;2022-12-07T09:45:52;97224.38;;;9.08;95.71
16461;BME280;8341;42.048;24.650;2022-12-07T09:48:29;97220.44;;;9.09;95.59
16461;BME280;8341;42.048;24.650;2022-12-07T09:50:58;97219.72;;;8.99;94.05
16461;BME280;8341;42.048;24.650;2022-12-07T09:53:27;97220.47;;;9.00;96.09
16461;BME280;8341;42.048;24.650;2022-12-07T09:55:54;97225.94;;;9.23;95.55
16461;BME280;8341;42.048;24.650;2022-12-07T09:58:26;97221.34;;;9.06;95.23
16461;BME280;8341;42.048;24.650;2022-12-07T10:00:56;97222.22;;;9.35;95.82
16461;BME280;8341;42.048;24.650;2022-12-07T10:03:23;97216.28;;;9.61;94.44
16461;BME280;8341;42.048;24.650;2022-12-07T10:05:52;97219.09;;;9.28;93.56
16461;BME280;8341;42.048;24.650;2022-12-07T10:08:19;97216.25;;;9.46;92.31
16461;BME280;8341;42.048;24.650;2022-12-07T10:10:50;97223.03;;;9.51;91.46
16461;BME280;8341;42.048;24.650;2022-12-07T10:13:20;97229.09;;;9.45;92.96
16461;BME280;8341;42.048;24.650;2022-12-07T10:15:50;97226.72;;;9.62;92.01
16461;BME280;8341;42.048;24.650;2022-12-07T10:18:26;97223.00;;;9.74;91.65
16461;BME280;8341;42.048;24.650;2022-12-07T10:21:03;97220.16;;;9.69;90.79
16461;BME280;8341;42.048;24.650;2022-12-07T10:23:30;97222.94;;;9.83;89.52
16461;BME280;8341;42.048;24.650;2022-12-07T10:25:57;97208.06;;;9.70;90.13
16461;BME280;8341;42.048;24.650;2022-12-07T10:28:34;97202.19;;;9.86;89.16
16461;BME280;8341;42.048;24.650;2022-12-07T10:31:15;97201.53;;;9.91;89.79
16461;BME280;8341;42.048;24.650;2022-12-07T10:33:49;97195.19;;;10.23;88.10
16461;BME280;8341;42.048;24.650;2022-12-07T10:36:20;97201.94;;;10.13;86.56
16461;BME280;8341;42.048;24.650;2022-12-07T10:38:48;97200.56;;;9.94;87.64
16461;BME280;8341;42.048;24.650;2022-12-07T10:41:15;97200.78;;;9.90;88.31
16461;BME280;8341;42.048;24.650;2022-12-07T10:43:53;97174.38;;;10.11;88.08
16461;BME280;8341;42.048;24.650;2022-12-07T10:49:55;97199.25;;;9.75;89.03
16461;BME280;8341;42.048;24.650;2022-12-07T10:52:40;97195.78;;;9.89;89.42
16461;BME280;8341;42.048;24.650;2022-12-07T10:55:20;97198.34;;;10.07;88.36
16461;BME280;8341;42.048;24.650;2022-12-07T10:58:00;97206.47;;;10.16;86.59
16461;BME280;8341;42.048;24.650;2022-12-07T11:00:39;97198.00;;;10.29;86.19
16461;BME280;8341;42.048;24.650;2022-12-07T11:06:24;97199.88;;;10.23;84.14
16461;BME280;8341;42.048;24.650;2022-12-07T11:09:03;97199.50;;;10.15;86.62
16461;BME280;8341;42.048;24.650;2022-12-07T11:11:36;97199.25;;;10.04;86.61
16461;BME280;8341;42.048;24.650;2022-12-07T11:14:11;97190.94;;;10.22;84.61
16461;BME280;8341;42.048;24.650;2022-12-07T11:16:50;97193.41;;;10.35;84.34
16461;BME280;8341;42.048;24.650;2022-12-07T11:19:41;97185.47;;;10.22;84.48
16461;BME280;8341;42.048;24.650;2022-12-07T11:22:21;97187.53;;;10.27;84.17
16461;BME280;8341;42.048;24.650;2022-12-07T11:24:55;97184.53;;;10.25;83.41
16461;BME280;8341;42.048;24.650;2022-12-07T11:27:32;97176.22;;;10.14;84.74
16461;BME280;8341;42.048;24.650;2022-12-07T11:30:10;97179.56;;;10.09;85.99
16461;BME280;8341;42.048;24.650;2022-12-07T11:33:05;97179.75;;;10.20;84.32
16461;BME280;8341;42.048;24.650;2022-12-07T11:35:42;97177.03;;;10.20;84.62
16461;BME280;8341;42.048;24.650;2022-12-07T11:38:16;97163.56;;;10.60;85.10
16461;BME280;8341;42.048;24.650;2022-12-07T11:40:45;97167.09;;;10.66;81.97
16461;BME280;8341;42.048;24.650;2022-12-07T11:43:20;97161.03;;;10.57;81.18
16461;BME280;8341;42.048;24.650;2022-12-07T11:45:56;97151.19;;;10.30;82.30
16461;BME280;8341;42.048;24.650;2022-12-07T11:48:30;97139.91;;;10.37;81.89
16461;BME280;8341;42.048;24.650;2022-12-07T11:51:00;97143.13;;;10.21;82.77
16461;BME280;8341;42.048;24.650;2022-12-07T11:53:35;97127.31;;;10.25;83.05
16461;BME280;8341;42.048;24.650;2022-12-07T11:56:09;97136.88;;;10.35;81.42
16461;BME280;8341;42.048;24.650;2022-12-07T11:58:46;97135.75;;;10.27;82.03
16461;BME280;8341;42.048;24.650;2022-12-07T12:01:25;97144.03;;;10.33;82.00
16461;BME280;8341;42.048;24.650;2022-12-07T12:03:58;97138.59;;;10.33;82.08
16461;BME280;8341;42.048;24.650;2022-12-07T12:06:27;97142.72;;;9.99;82.39
16461;BME280;8341;42.048;24.650;2022-12-07T12:09:02;97137.09;;;10.17;82.97
16461;BME280;8341;42.048;24.650;2022-12-07T12:11:48;97119.72;;;10.29;81.90
16461;BME280;8341;42.048;24.650;2022-12-07T12:14:37;97133.13;;;10.47;81.67
16461;BME280;8341;42.048;24.650;2022-12-07T12:17:44;97131.63;;;10.46;80.94
16461;BME280;8341;42.048;24.650;2022-12-07T12:20:20;97124.78;;;10.36;82.42
16461;BME280;8341;42.048;24.650;2022-12-07T12:22:52;97126.69;;;10.50;81.62
16461;BME280;8341;42.048;24.650;2022-12-07T12:25:24;97123.03;;;10.53;81.47
16461;BME280;8341;42.048;24.650;2022-12-07T12:27:54;97113.47;;;10.43;80.43
16461;BME280;8341;42.048;24.650;2022-12-07T12:30:30;97108.94;;;10.55;80.48
16461;BME280;8341;42.048;24.650;2022-12-07T12:33:11;97115.41;;;10.57;79.98
16461;BME280;8341;42.048;24.650;2022-12-07T12:35:40;97110.19;;;10.39;81.68
16461;BME280;8341;42.048;24.650;2022-12-07T12:38:31;97108.59;;;10.47;82.27
16461;BME280;8341;42.048;24.650;2022-12-07T12:41:02;97099.88;;;10.63;80.78
16461;BME280;8341;42.048;24.650;2022-12-07T12:43:50;97100.34;;;10.62;82.34
16461;BME280;8341;42.048;24.650;2022-12-07T12:46:51;97094.16;;;10.61;81.58
16461;BME280;8341;42.048;24.650;2022-12-07T12:49:42;97086.47;;;10.45;81.34
16461;BME280;8341;42.048;24.650;2022-12-07T12:52:47;97083.59;;;10.69;82.48
16461;BME280;8341;42.048;24.650;2022-12-07T12:58:35;97088.16;;;10.78;81.71
16461;BME280;8341;42.048;24.650;2022-12-07T13:07:49;97093.72;;;10.48;83.13
16461;BME280;8341;42.048;24.650;2022-12-07T13:10:23;97081.25;;;10.42;83.68
16461;BME280;8341;42.048;24.650;2022-12-07T13:12:57;97078.66;;;10.18;85.70
16461;BME280;8341;42.048;24.650;2022-12-07T13:15:37;97083.72;;;10.11;87.41
16461;BME280;8341;42.048;24.650;2022-12-07T13:18:23;97069.34;;;10.10;86.25
16461;BME280;8341;42.048;24.650;2022-12-07T13:20:53;97078.47;;;10.07;87.28
16461;BME280;8341;42.048;24.650;2022-12-07T13:23:27;97088.63;;;9.92;88.03
16461;BME280;8341;42.048;24.650;2022-12-07T13:26:02;97087.28;;;10.02;87.91
16461;BME280;8341;42.048;24.650;2022-12-07T13:28:37;97100.06;;;9.81;89.05
16461;BME280;8341;42.048;24.650;2022-12-07T13:31:27;97097.44;;;10.01;88.52
16461;BME280;8341;42.048;24.650;2022-12-07T13:33:57;97106.38;;;10.02;88.06
16461;BME280;8341;42.048;24.650;2022-12-07T13:36:26;97108.94;;;9.91;88.37
16461;BME280;8341;42.048;24.650;2022-12-07T13:38:56;97100.09;;;9.96;88.18
16461;BME280;8341;42.048;24.650;2022-12-07T13:41:24;97098.94;;;10.02;87.65
16461;BME280;8341;42.048;24.650;2022-12-07T13:44:00;97087.97;;;10.12;87.92
16461;BME280;8341;42.048;24.650;2022-12-07T13:46:35;97098.00;;;10.20;87.92
16461;BME280;8341;42.048;24.650;2022-12-07T13:49:16;97100.16;;;10.01;87.81
16461;BME280;8341;42.048;24.650;2022-12-07T13:51:43;97089.16;;;10.11;86.67
16461;BME280;8341;42.048;24.650;2022-12-07T13:54:11;97089.00;;;9.99;87.69
16461;BME280;8341;42.048;24.650;2022-12-07T13:56:39;97084.66;;;10.07;87.20
16461;BME280;8341;42.048;24.650;2022-12-07T13:59:13;97101.97;;;9.90;87.81
16461;BME280;8341;42.048;24.650;2022-12-07T14:01:42;97097.66;;;9.98;87.64
16461;BME280;8341;42.048;24.650;2022-12-07T14:04:33;97092.75;;;10.02;88.01
16461;BME280;8341;42.048;24.650;2022-12-07T14:07:15;97093.69;;;9.99;88.39
16461;BME280;8341;42.048;24.650;2022-12-07T14:09:54;97104.31;;;9.97;88.36
16461;BME280;8341;42.048;24.650;2022-12-07T14:12:21;97108.25;;;9.96;88.30
16461;BME280;8341;42.048;24.650;2022-12-07T14:14:49;97103.19;;;9.89;88.29
16461;BME280;8341;42.048;24.650;2022-12-07T14:17:19;97085.25;;;9.68;89.44
16461;BME280;8341;42.048;24.650;2022-12-07T14:19:50;97099.16;;;9.84;88.98
16461;BME280;8341;42.048;24.650;2022-12-07T14:22:32;97103.84;;;9.84;88.88
16461;BME280;8341;42.048;24.650;2022-12-07T14:25:18;97099.03;;;9.79;88.94
16461;BME280;8341;42.048;24.650;2022-12-07T14:27:53;97099.97;;;9.76;89.55
16461;BME280;8341;42.048;24.650;2022-12-07T14:30:23;97100.94;;;9.73;90.12
16461;BME280;8341;42.048;24.650;2022-12-07T14:32:54;97097.47;;;9.72;90.74
16461;BME280;8341;42.048;24.650;2022-12-07T14:35:21;97095.78;;;9.75;90.19
16461;BME280;8341;42.048;24.650;2022-12-07T14:37:49;97098.78;;;9.77;89.67
16461;BME280;8341;42.048;24.650;2022-12-07T14:40:18;97092.56;;;9.76;90.43
16461;BME280;8341;42.048;24.650;2022-12-07T14:42:47;97086.75;;;9.69;90.79
16461;BME280;8341;42.048;24.650;2022-12-07T14:45:16;97090.34;;;9.60;91.71
16461;BME280;8341;42.048;24.650;2022-12-07T14:47:44;97088.53;;;9.57;91.79
16461;BME280;8341;42.048;24.650;2022-12-07T14:50:14;97087.13;;;9.47;92.42
16461;BME280;8341;42.048;24.650;2022-12-07T14:52:43;97099.03;;;9.50;92.29
16461;BME280;8341;42.048;24.650;2022-12-07T14:55:16;97101.47;;;9.48;93.42
16461;BME280;8341;42.048;24.650;2022-12-07T14:57:45;97094.44;;;9.41;94.05
16461;BME280;8341;42.048;24.650;2022-12-07T15:00:15;97101.16;;;9.31;95.07
16461;BME280;8341;42.048;24.650;2022-12-07T15:02:43;97106.00;;;9.12;97.84
16461;BME280;8341;42.048;24.650;2022-12-07T15:05:10;97091.84;;;9.08;97.08
16461;BME280;8341;42.048;24.650;2022-12-07T15:07:40;97088.53;;;9.04;96.86
16461;BME280;8341;42.048;24.650;2022-12-07T15:10:14;97095.84;;;8.98;98.08
16461;BME280;8341;42.048;24.650;2022-12-07T15:12:41;97103.28;;;8.89;98.93
16461;BME280;8341;42.048;24.650;2022-12-07T15:15:08;97097.44;;;8.81;98.84
16461;BME280;8341;42.048;24.650;2022-12-07T15:17:35;97100.16;;;8.81;100.00
16461;BME280;8341;42.048;24.650;2022-12-07T15:20:03;97097.44;;;8.81;99.82
16461;BME280;8341;42.048;24.650;2022-12-07T15:22:30;97108.31;;;8.81;100.00
16461;BME280;8341;42.048;24.650;2022-12-07T15:24:59;97114.25;;;8.79;100.00
16461;BME280;8341;42.048;24.650;2022-12-07T15:27:27;97125.34;;;8.67;100.00
16461;BME280;8341;42.048;24.650;2022-12-07T15:29:53;97125.34;;;8.67;100.00
16461;BME280;8341;42.048;24.650;2022-12-07T15:32:20;97122.50;;;8.61;99.92
16461;BME280;8341;42.048;24.650;2022-12-07T15:34:48;97128.28;;;8.54;99.91
16461;BME280;8341;42.048;24.650;2022-12-07T15:37:15;97127.88;;;8.47;100.00
16461;BME280;8341;42.048;24.650;2022-12-07T15:39:42;97124.72;;;8.39;100.00
16461;BME280;8341;42.048;24.650;2022-12-07T15:42:11;97120.66;;;8.35;100.00
16461;BME280;8341;42.048;24.650;2022-12-07T15:44:37;97120.69;;;8.26;100.00
16461;BME280;8341;42.048;24.650;2022-12-07T15:47:22;97119.16;;;8.25;100.00
16461;BME280;8341;42.048;24.650;2022-12-07T15:49:49;97118.31;;;8.18;100.00
16461;BME280;8341;42.048;24.650;2022-12-07T15:52:16;97114.41;;;8.10;100.00
16461;BME280;8341;42.048;24.650;2022-12-07T15:54:44;97121.78;;;8.10;100.00
16461;BME280;8341;42.048;24.650;2022-12-07T15:57:14;97118.34;;;8.00;100.00
16461;BME280;8341;42.048;24.650;2022-12-07T15:59:41;97118.50;;;7.97;100.00
16461;BME280;8341;42.048;24.650;2022-12-07T16:02:09;97122.59;;;7.92;100.00
16461;BME280;8341;42.048;24.650;2022-12-07T16:04:36;97127.31;;;7.74;100.00
16461;BME280;8341;42.048;24.650;2022-12-07T16:07:03;97109.84;;;7.75;100.00
16461;BME280;8341;42.048;24.650;2022-12-07T16:09:31;97115.44;;;7.62;100.00
16461;BME280;8341;42.048;24.650;2022-12-07T16:11:58;97101.31;;;7.31;100.00
16461;BME280;8341;42.048;24.650;2022-12-07T16:14:26;97113.97;;;7.34;100.00
16461;BME280;8341;42.048;24.650;2022-12-07T16:16:53;97119.22;;;7.28;100.00
16461;BME280;8341;42.048;24.650;2022-12-07T16:19:20;97116.22;;;7.26;100.00
16461;BME280;8341;42.048;24.650;2022-12-07T16:21:47;97113.03;;;7.10;100.00
16461;BME280;8341;42.048;24.650;2022-12-07T16:24:14;97128.72;;;7.15;100.00
16461;BME280;8341;42.048;24.650;2022-12-07T16:26:41;97128.72;;;7.24;100.00
16461;BME280;8341;42.048;24.650;2022-12-07T16:29:11;97129.03;;;7.26;100.00
16461;BME280;8341;42.048;24.650;2022-12-07T16:31:40;97128.56;;;7.27;100.00
16461;BME280;8341;42.048;24.650;2022-12-07T16:34:08;97135.94;;;7.27;100.00
16461;BME280;8341;42.048;24.650;2022-12-07T16:36:35;97123.13;;;7.27;100.00
16461;BME280;8341;42.048;24.650;2022-12-07T16:39:02;97131.88;;;7.22;100.00
16461;BME280;8341;42.048;24.650;2022-12-07T16:41:29;97143.19;;;7.21;100.00
16461;BME280;8341;42.048;24.650;2022-12-07T16:43:56;97138.38;;;7.16;100.00
16461;BME280;8341;42.048;24.650;2022-12-07T16:46:23;97151.16;;;7.15;100.00
16461;BME280;8341;42.048;24.650;2022-12-07T16:48:52;97146.50;;;7.16;100.00
16461;BME280;8341;42.048;24.650;2022-12-07T16:51:19;97153.28;;;7.11;100.00
16461;BME280;8341;42.048;24.650;2022-12-07T16:53:45;97159.75;;;7.14;100.00
16461;BME280;8341;42.048;24.650;2022-12-07T16:56:14;97162.47;;;7.14;100.00
16461;BME280;8341;42.048;24.650;2022-12-07T16:58:42;97167.44;;;7.15;100.00
16461;BME280;8341;42.048;24.650;2022-12-07T17:01:11;97163.97;;;7.06;100.00
16461;BME280;8341;42.048;24.650;2022-12-07T17:03:38;97168.47;;;7.00;100.00
16461;BME280;8341;42.048;24.650;2022-12-07T17:06:13;97166.69;;;7.06;100.00
16461;BME280;8341;42.048;24.650;2022-12-07T17:08:40;97172.41;;;7.08;100.00
16461;BME280;8341;42.048;24.650;2022-12-07T17:11:12;97168.03;;;7.10;100.00
16461;BME280;8341;42.048;24.650;2022-12-07T17:13:39;97168.94;;;7.07;100.00
16461;BME280;8341;42.048;24.650;2022-12-07T17:16:23;97166.50;;;7.09;100.00
16461;BME280;8341;42.048;24.650;2022-12-07T17:18:50;97166.69;;;7.06;100.00
16461;BME280;8341;42.048;24.650;2022-12-07T17:21:19;97166.09;;;7.11;100.00
16461;BME280;8341;42.048;24.650;2022-12-07T17:23:46;97159.13;;;6.91;100.00
16461;BME280;8341;42.048;24.650;2022-12-07T17:26:15;97171.13;;;6.81;100.00
16461;BME280;8341;42.048;24.650;2022-12-07T17:28:43;97159.28;;;6.88;100.00
16461;BME280;8341;42.048;24.650;2022-12-07T17:31:12;97162.75;;;6.98;100.00
16461;BME280;8341;42.048;24.650;2022-12-07T17:33:40;97165.59;;;6.94;100.00
16461;BME280;8341;42.048;24.650;2022-12-07T17:36:10;97164.19;;;6.71;100.00
16461;BME280;8341;42.048;24.650;2022-12-07T17:38:39;97157.13;;;6.74;100.00
16461;BME280;8341;42.048;24.650;2022-12-07T17:41:10;97161.66;;;6.77;100.00
16461;BME280;8341;42.048;24.650;2022-12-07T17:43:37;97174.31;;;6.80;100.00
16461;BME280;8341;42.048;24.650;2022-12-07T17:46:06;97177.16;;;6.76;100.00
16461;BME280;8341;42.048;24.650;2022-12-07T17:48:34;97181.03;;;6.75;100.00
16461;BME280;8341;42.048;24.650;2022-12-07T17:51:01;97145.31;;;6.50;100.00
16461;BME280;8341;42.048;24.650;2022-12-07T17:53:49;97183.16;;;6.62;100.00
16461;BME280;8341;42.048;24.650;2022-12-07T17:56:16;97171.66;;;6.49;100.00
16461;BME280;8341;42.048;24.650;2022-12-07T17:58:43;97172.53;;;6.46;100.00
16461;BME280;8341;42.048;24.650;2022-12-07T18:01:10;97168.94;;;6.49;100.00
16461;BME280;8341;42.048;24.650;2022-12-07T18:03:37;97171.97;;;6.51;100.00
16461;BME280;8341;42.048;24.650;2022-12-07T18:06:04;97166.25;;;6.49;100.00
16461;BME280;8341;42.048;24.650;2022-12-07T18:08:34;97161.25;;;6.48;100.00
16461;BME280;8341;42.048;24.650;2022-12-07T18:11:05;97159.88;;;6.43;100.00
16461;BME280;8341;42.048;24.650;2022-12-07T18:13:33;97161.22;;;6.39;100.00
16461;BME280;8341;42.048;24.650;2022-12-07T18:16:04;97158.25;;;6.46;100.00
16461;BME280;8341;42.048;24.650;2022-12-07T18:18:31;97162.00;;;6.48;100.00
16461;BME280;8341;42.048;24.650;2022-12-07T18:21:01;97171.31;;;6.47;100.00
16461;BME280;8341;42.048;24.650;2022-12-07T18:23:29;97173.72;;;6.45;100.00
16461;BME280;8341;42.048;24.650;2022-12-07T18:25:56;97168.31;;;6.45;100.00
16461;BME280;8341;42.048;24.650;2022-12-07T18:28:24;97173.41;;;6.34;100.00
16461;BME280;8341;42.048;24.650;2022-12-07T18:30:51;97172.00;;;6.29;100.00
16461;BME280;8341;42.048;24.650;2022-12-07T18:33:19;97179.41;;;6.29;100.00
16461;BME280;8341;42.048;24.650;2022-12-07T18:35:47;97180.00;;;6.33;100.00
16461;BME280;8341;42.048;24.650;2022-12-07T18:38:14;97181.19;;;6.32;100.00
16461;BME280;8341;42.048;24.650;2022-12-07T18:40:43;97177.31;;;6.33;100.00
16461;BME280;8341;42.048;24.650;2022-12-07T18:43:11;97174.94;;;6.44;100.00
16461;BME280;8341;42.048;24.650;2022-12-07T18:45:40;97171.19;;;6.42;100.00